Forside
METAR-TAF:

METAR-TAF

Lufthavne :

Kunming, Kina

Breddekreds: 25-01N, længdekreds: 102-41E, højde: 1892 m

Aktuelle vejr

Denne rapport blev lavet for 29 minutter siden, kl. 16:00 UTC
Vind 8 kt fra nordnordøst
Temperatur 8°C
Fugtighed 87%
Tryk 1022 hPa
Sigt: 4000 m
Spredte skyer i en højde af 2600 ft
Brudte skyer i en højde af 4000 ft
dis

METAR: ZPPP 231600Z 02004MPS 4000 BR SCT026 BKN040 08/06 Q1022 NOSIG

Tid: 00:29 (16:29 UTC)

Vejrudsigter

Denne rapport blev lavet for 9 timer og 26 minutter siden, kl. 07:03 UTC
Foreløbig gælder fra 23 på 12 UTC til 24 på 12 UTC
Vind 8 kt fra nordøst
Sigt 10 km eller mere
Spredte skyer i en højde af 2600 ft
ændring
fra 24 på 02 UTC til 24 på 03 UTC
Vind 12 kt fra sydvest

TAF: ZPPP 230703Z 2312/2412 04004MPS 9999 SCT026 TX20/2408Z TN07/2323Z BECMG 2402/2403 22006MPS

Vejrobservationer og prognoser fra mere end 4000 lufthavne (METAR og TAF).

De gule og røde prikker repræsenterer de meteorologiske stationer.

Flyt musen over at se navnet på stationen.

Så klik over at se vejr observationer og prognoser.

At skifte det kort: Klik på de grønne knapper med et sort kors for at zoome ind; på den grønne knap med en bindestreg for at zoome ud; eller på de grønne pile for tilstødende kort.


METAR-TAF: